sensor_id;sensor_type;location;lat;lon;timestamp;temperature;humidity
9762;DHT22;4920;49.594;11.022;2023-10-19T00:01:27;8.30;99.90
9762;DHT22;4920;49.594;11.022;2023-10-19T00:03:55;8.30;99.90
9762;DHT22;4920;49.594;11.022;2023-10-19T00:06:24;8.30;99.90
9762;DHT22;4920;49.594;11.022;2023-10-19T00:08:54;8.30;99.90
9762;DHT22;4920;49.594;11.022;2023-10-19T00:11:22;8.30;99.90
9762;DHT22;4920;49.594;11.022;2023-10-19T00:13:52;8.30;99.90
9762;DHT22;4920;49.594;11.022;2023-10-19T00:16:22;8.30;99.90
9762;DHT22;4920;49.594;11.022;2023-10-19T00:18:51;8.40;99.90
9762;DHT22;4920;49.594;11.022;2023-10-19T00:21:21;8.40;99.90
9762;DHT22;4920;49.594;11.022;2023-10-19T00:23:52;8.40;99.90
9762;DHT22;4920;49.594;11.022;2023-10-19T00:26:26;8.40;99.90
9762;DHT22;4920;49.594;11.022;2023-10-19T00:29:00;8.40;99.90
9762;DHT22;4920;49.594;11.022;2023-10-19T00:31:42;8.50;99.90
9762;DHT22;4920;49.594;11.022;2023-10-19T00:34:11;8.50;99.90
9762;DHT22;4920;49.594;11.022;2023-10-19T00:36:41;8.50;99.90
9762;DHT22;4920;49.594;11.022;2023-10-19T00:39:10;8.50;99.90
9762;DHT22;4920;49.594;11.022;2023-10-19T00:41:50;8.50;99.90
9762;DHT22;4920;49.594;11.022;2023-10-19T00:44:19;8.50;99.90
9762;DHT22;4920;49.594;11.022;2023-10-19T00:46:56;8.60;99.90
9762;DHT22;4920;49.594;11.022;2023-10-19T00:49:32;8.50;99.90
9762;DHT22;4920;49.594;11.022;2023-10-19T00:52:03;8.50;99.90
9762;DHT22;4920;49.594;11.022;2023-10-19T00:54:40;8.60;99.90
9762;DHT22;4920;49.594;11.022;2023-10-19T00:57:20;8.60;99.90
9762;DHT22;4920;49.594;11.022;2023-10-19T00:59:59;8.60;99.90
9762;DHT22;4920;49.594;11.022;2023-10-19T01:02:39;8.60;99.90
9762;DHT22;4920;49.594;11.022;2023-10-19T01:05:13;8.60;99.90
9762;DHT22;4920;49.594;11.022;2023-10-19T01:07:43;8.60;99.90
9762;DHT22;4920;49.594;11.022;2023-10-19T01:10:13;8.60;99.90
9762;DHT22;4920;49.594;11.022;2023-10-19T01:12:49;8.70;99.90
9762;DHT22;4920;49.594;11.022;2023-10-19T01:15:19;8.70;99.90
9762;DHT22;4920;49.594;11.022;2023-10-19T01:17:52;8.70;99.90
9762;DHT22;4920;49.594;11.022;2023-10-19T01:20:26;8.70;99.90
9762;DHT22;4920;49.594;11.022;2023-10-19T01:23:16;8.70;99.90
9762;DHT22;4920;49.594;11.022;2023-10-19T01:25:57;8.70;99.90
9762;DHT22;4920;49.594;11.022;2023-10-19T01:28:34;8.70;99.90
9762;DHT22;4920;49.594;11.022;2023-10-19T01:31:16;8.70;99.90
9762;DHT22;4920;49.594;11.022;2023-10-19T01:33:50;8.70;99.90
9762;DHT22;4920;49.594;11.022;2023-10-19T01:36:22;8.70;99.90
9762;DHT22;4920;49.594;11.022;2023-10-19T01:38:57;8.70;99.90
9762;DHT22;4920;49.594;11.022;2023-10-19T01:41:28;8.70;99.90
9762;DHT22;4920;49.594;11.022;2023-10-19T01:43:58;8.60;99.90
9762;DHT22;4920;49.594;11.022;2023-10-19T01:46:34;8.60;99.90
9762;DHT22;4920;49.594;11.022;2023-10-19T01:49:04;8.60;99.90
9762;DHT22;4920;49.594;11.022;2023-10-19T01:51:34;8.60;99.90
9762;DHT22;4920;49.594;11.022;2023-10-19T01:54:08;8.60;99.90
9762;DHT22;4920;49.594;11.022;2023-10-19T01:56:36;8.60;99.90
9762;DHT22;4920;49.594;11.022;2023-10-19T01:59:06;8.70;99.90
9762;DHT22;4920;49.594;11.022;2023-10-19T02:01:36;8.70;99.90
9762;DHT22;4920;49.594;11.022;2023-10-19T02:04:09;8.70;99.90
9762;DHT22;4920;49.594;11.022;2023-10-19T02:06:39;8.70;99.90
9762;DHT22;4920;49.594;11.022;2023-10-19T02:09:11;8.70;99.90
9762;DHT22;4920;49.594;11.022;2023-10-19T02:11:50;8.70;99.90
9762;DHT22;4920;49.594;11.022;2023-10-19T02:14:25;8.70;99.90
9762;DHT22;4920;49.594;11.022;2023-10-19T02:16:57;8.70;99.90
9762;DHT22;4920;49.594;11.022;2023-10-19T02:19:28;8.70;99.90
9762;DHT22;4920;49.594;11.022;2023-10-19T02:21:58;8.80;99.90
9762;DHT22;4920;49.594;11.022;2023-10-19T02:24:28;8.80;99.90
9762;DHT22;4920;49.594;11.022;2023-10-19T02:26:58;8.80;99.90
9762;DHT22;4920;49.594;11.022;2023-10-19T02:29:27;8.80;99.90
9762;DHT22;4920;49.594;11.022;2023-10-19T02:31:58;8.80;99.90
9762;DHT22;4920;49.594;11.022;2023-10-19T02:34:31;8.80;99.90
9762;DHT22;4920;49.594;11.022;2023-10-19T02:37:02;8.80;99.90
9762;DHT22;4920;49.594;11.022;2023-10-19T02:39:31;8.80;99.90
9762;DHT22;4920;49.594;11.022;2023-10-19T02:42:01;8.80;99.90
9762;DHT22;4920;49.594;11.022;2023-10-19T02:44:30;8.80;99.90
9762;DHT22;4920;49.594;11.022;2023-10-19T02:46:58;8.80;99.90
9762;DHT22;4920;49.594;11.022;2023-10-19T02:49:33;8.80;99.90
9762;DHT22;4920;49.594;11.022;2023-10-19T02:52:05;8.80;99.90
9762;DHT22;4920;49.594;11.022;2023-10-19T02:54:35;8.90;99.90
9762;DHT22;4920;49.594;11.022;2023-10-19T02:57:04;8.80;99.90
9762;DHT22;4920;49.594;11.022;2023-10-19T02:59:36;8.80;99.90
9762;DHT22;4920;49.594;11.022;2023-10-19T03:02:06;8.90;99.90
9762;DHT22;4920;49.594;11.022;2023-10-19T03:04:43;8.90;99.90
9762;DHT22;4920;49.594;11.022;2023-10-19T03:07:14;8.80;99.90
9762;DHT22;4920;49.594;11.022;2023-10-19T03:09:45;8.90;99.90
9762;DHT22;4920;49.594;11.022;2023-10-19T03:12:18;8.80;99.90
9762;DHT22;4920;49.594;11.022;2023-10-19T03:14:45;8.90;99.90
9762;DHT22;4920;49.594;11.022;2023-10-19T03:17:16;8.90;99.90
9762;DHT22;4920;49.594;11.022;2023-10-19T03:19:44;8.90;99.90
9762;DHT22;4920;49.594;11.022;2023-10-19T03:22:13;8.90;99.90
9762;DHT22;4920;49.594;11.022;2023-10-19T03:24:42;8.80;99.90
9762;DHT22;4920;49.594;11.022;2023-10-19T03:27:14;8.90;99.90
9762;DHT22;4920;49.594;11.022;2023-10-19T03:29:45;8.90;99.90
9762;DHT22;4920;49.594;11.022;2023-10-19T03:32:15;8.90;99.90
9762;DHT22;4920;49.594;11.022;2023-10-19T03:34:46;8.90;99.90
9762;DHT22;4920;49.594;11.022;2023-10-19T03:37:18;8.90;99.90
9762;DHT22;4920;49.594;11.022;2023-10-19T03:39:49;8.90;99.90
9762;DHT22;4920;49.594;11.022;2023-10-19T03:42:20;8.80;99.90
9762;DHT22;4920;49.594;11.022;2023-10-19T03:44:54;8.90;99.90
9762;DHT22;4920;49.594;11.022;2023-10-19T03:47:24;8.90;99.90
9762;DHT22;4920;49.594;11.022;2023-10-19T03:50:00;8.90;99.90
9762;DHT22;4920;49.594;11.022;2023-10-19T03:52:35;8.90;99.90
9762;DHT22;4920;49.594;11.022;2023-10-19T03:55:07;8.90;99.90
9762;DHT22;4920;49.594;11.022;2023-10-19T03:57:45;9.00;99.90
9762;DHT22;4920;49.594;11.022;2023-10-19T04:00:18;9.00;99.90
9762;DHT22;4920;49.594;11.022;2023-10-19T04:02:52;9.00;99.90
9762;DHT22;4920;49.594;11.022;2023-10-19T04:05:23;9.00;99.90
9762;DHT22;4920;49.594;11.022;2023-10-19T04:07:53;8.90;99.90
9762;DHT22;4920;49.594;11.022;2023-10-19T04:10:24;8.90;99.90
9762;DHT22;4920;49.594;11.022;2023-10-19T04:13:08;8.90;99.90
9762;DHT22;4920;49.594;11.022;2023-10-19T04:15:40;8.80;99.90
9762;DHT22;4920;49.594;11.022;2023-10-19T04:18:10;8.80;99.90
9762;DHT22;4920;49.594;11.022;2023-10-19T04:20:39;8.80;99.90
9762;DHT22;4920;49.594;11.022;2023-10-19T04:23:23;8.70;99.90
9762;DHT22;4920;49.594;11.022;2023-10-19T04:25:56;8.70;99.90
9762;DHT22;4920;49.594;11.022;2023-10-19T04:28:27;8.70;99.90
9762;DHT22;4920;49.594;11.022;2023-10-19T04:31:06;8.70;99.90
9762;DHT22;4920;49.594;11.022;2023-10-19T04:33:35;8.70;99.90
9762;DHT22;4920;49.594;11.022;2023-10-19T04:36:05;8.70;99.90
9762;DHT22;4920;49.594;11.022;2023-10-19T04:38:38;8.80;99.90
9762;DHT22;4920;49.594;11.022;2023-10-19T04:41:08;8.70;99.90
9762;DHT22;4920;49.594;11.022;2023-10-19T04:43:39;8.80;99.90
9762;DHT22;4920;49.594;11.022;2023-10-19T04:46:11;8.80;99.90
9762;DHT22;4920;49.594;11.022;2023-10-19T04:48:40;8.90;99.90
9762;DHT22;4920;49.594;11.022;2023-10-19T04:51:09;8.90;99.90
9762;DHT22;4920;49.594;11.022;2023-10-19T04:53:38;8.80;99.90
9762;DHT22;4920;49.594;11.022;2023-10-19T04:56:07;8.90;99.90
9762;DHT22;4920;49.594;11.022;2023-10-19T04:58:38;8.90;99.90
9762;DHT22;4920;49.594;11.022;2023-10-19T05:01:08;8.90;99.90
9762;DHT22;4920;49.594;11.022;2023-10-19T05:03:39;9.00;99.90
9762;DHT22;4920;49.594;11.022;2023-10-19T05:06:08;9.00;99.90
9762;DHT22;4920;49.594;11.022;2023-10-19T05:08:38;9.00;99.90
9762;DHT22;4920;49.594;11.022;2023-10-19T05:11:06;9.00;99.90
9762;DHT22;4920;49.594;11.022;2023-10-19T05:13:35;9.00;99.90
9762;DHT22;4920;49.594;11.022;2023-10-19T05:16:06;9.00;99.90
9762;DHT22;4920;49.594;11.022;2023-10-19T05:18:35;9.00;99.90
9762;DHT22;4920;49.594;11.022;2023-10-19T05:21:04;9.00;99.90
9762;DHT22;4920;49.594;11.022;2023-10-19T05:23:33;9.00;99.90
9762;DHT22;4920;49.594;11.022;2023-10-19T05:26:04;9.10;99.90
9762;DHT22;4920;49.594;11.022;2023-10-19T05:28:34;9.10;99.90
9762;DHT22;4920;49.594;11.022;2023-10-19T05:31:03;9.10;99.90
9762;DHT22;4920;49.594;11.022;2023-10-19T05:33:34;9.10;99.90
9762;DHT22;4920;49.594;11.022;2023-10-19T05:36:04;9.10;99.90
9762;DHT22;4920;49.594;11.022;2023-10-19T05:38:33;9.10;99.90
9762;DHT22;4920;49.594;11.022;2023-10-19T05:41:02;9.10;99.90
9762;DHT22;4920;49.594;11.022;2023-10-19T05:43:31;9.20;99.90
9762;DHT22;4920;49.594;11.022;2023-10-19T05:46:01;9.20;99.90
9762;DHT22;4920;49.594;11.022;2023-10-19T05:48:31;9.20;99.90
9762;DHT22;4920;49.594;11.022;2023-10-19T05:51:02;9.20;99.90
9762;DHT22;4920;49.594;11.022;2023-10-19T05:53:30;9.20;99.90
9762;DHT22;4920;49.594;11.022;2023-10-19T05:55:59;9.30;99.90
9762;DHT22;4920;49.594;11.022;2023-10-19T05:58:28;9.20;99.90
9762;DHT22;4920;49.594;11.022;2023-10-19T06:00:58;9.30;99.90
9762;DHT22;4920;49.594;11.022;2023-10-19T06:03:27;9.30;99.90
9762;DHT22;4920;49.594;11.022;2023-10-19T06:05:56;9.30;99.90
9762;DHT22;4920;49.594;11.022;2023-10-19T06:08:27;9.30;99.90
9762;DHT22;4920;49.594;11.022;2023-10-19T06:10:56;9.30;99.90
9762;DHT22;4920;49.594;11.022;2023-10-19T06:13:25;9.30;99.90
9762;DHT22;4920;49.594;11.022;2023-10-19T06:15:54;9.20;99.90
9762;DHT22;4920;49.594;11.022;2023-10-19T06:18:23;9.20;99.90
9762;DHT22;4920;49.594;11.022;2023-10-19T06:20:52;9.20;99.90
9762;DHT22;4920;49.594;11.022;2023-10-19T06:23:22;9.10;99.90
9762;DHT22;4920;49.594;11.022;2023-10-19T06:25:52;9.10;99.90
9762;DHT22;4920;49.594;11.022;2023-10-19T06:28:21;9.10;99.90
9762;DHT22;4920;49.594;11.022;2023-10-19T06:30:50;9.10;99.90
9762;DHT22;4920;49.594;11.022;2023-10-19T06:33:20;9.10;99.90
9762;DHT22;4920;49.594;11.022;2023-10-19T06:35:50;9.10;99.90
9762;DHT22;4920;49.594;11.022;2023-10-19T06:38:19;9.10;99.90
9762;DHT22;4920;49.594;11.022;2023-10-19T06:40:47;9.20;99.90
9762;DHT22;4920;49.594;11.022;2023-10-19T06:43:18;9.20;99.90
9762;DHT22;4920;49.594;11.022;2023-10-19T06:45:48;9.30;99.90
9762;DHT22;4920;49.594;11.022;2023-10-19T06:48:17;9.40;99.90
9762;DHT22;4920;49.594;11.022;2023-10-19T06:50:46;9.50;99.90
9762;DHT22;4920;49.594;11.022;2023-10-19T06:53:18;9.60;99.90
9762;DHT22;4920;49.594;11.022;2023-10-19T06:55:47;9.80;99.90
9762;DHT22;4920;49.594;11.022;2023-10-19T06:58:18;9.90;99.90
9762;DHT22;4920;49.594;11.022;2023-10-19T07:00:47;10.00;99.90
9762;DHT22;4920;49.594;11.022;2023-10-19T07:03:24;10.10;99.90
9762;DHT22;4920;49.594;11.022;2023-10-19T07:05:55;10.10;99.90
9762;DHT22;4920;49.594;11.022;2023-10-19T07:08:25;10.30;99.90
9762;DHT22;4920;49.594;11.022;2023-10-19T07:10:55;10.30;99.90
9762;DHT22;4920;49.594;11.022;2023-10-19T07:13:26;10.40;99.90
9762;DHT22;4920;49.594;11.022;2023-10-19T07:15:54;10.50;99.90
9762;DHT22;4920;49.594;11.022;2023-10-19T07:18:23;10.50;99.90
9762;DHT22;4920;49.594;11.022;2023-10-19T07:20:52;10.60;99.90
9762;DHT22;4920;49.594;11.022;2023-10-19T07:23:28;10.80;99.90
9762;DHT22;4920;49.594;11.022;2023-10-19T07:25:57;10.90;99.90
9762;DHT22;4920;49.594;11.022;2023-10-19T07:28:29;11.00;99.90
9762;DHT22;4920;49.594;11.022;2023-10-19T07:30:58;11.20;99.90
9762;DHT22;4920;49.594;11.022;2023-10-19T07:33:28;11.30;99.90
9762;DHT22;4920;49.594;11.022;2023-10-19T07:35:57;11.50;99.90
9762;DHT22;4920;49.594;11.022;2023-10-19T07:38:28;11.60;99.90
9762;DHT22;4920;49.594;11.022;2023-10-19T07:41:00;11.70;99.90
9762;DHT22;4920;49.594;11.022;2023-10-19T07:43:31;11.80;99.90
9762;DHT22;4920;49.594;11.022;2023-10-19T07:46:00;11.90;99.90
9762;DHT22;4920;49.594;11.022;2023-10-19T07:48:30;12.00;99.90
9762;DHT22;4920;49.594;11.022;2023-10-19T07:50:59;12.10;99.90
9762;DHT22;4920;49.594;11.022;2023-10-19T07:53:28;12.20;99.90
9762;DHT22;4920;49.594;11.022;2023-10-19T07:55:57;12.20;99.90
9762;DHT22;4920;49.594;11.022;2023-10-19T07:58:26;12.30;99.90
9762;DHT22;4920;49.594;11.022;2023-10-19T08:00:56;12.40;99.90
9762;DHT22;4920;49.594;11.022;2023-10-19T08:03:25;12.70;99.90
9762;DHT22;4920;49.594;11.022;2023-10-19T08:05:54;12.90;99.90
9762;DHT22;4920;49.594;11.022;2023-10-19T08:08:23;13.10;99.90
9762;DHT22;4920;49.594;11.022;2023-10-19T08:10:52;13.30;99.90
9762;DHT22;4920;49.594;11.022;2023-10-19T08:13:21;13.50;99.90
9762;DHT22;4920;49.594;11.022;2023-10-19T08:15:56;13.70;99.90
9762;DHT22;4920;49.594;11.022;2023-10-19T08:18:25;13.70;99.90
9762;DHT22;4920;49.594;11.022;2023-10-19T08:20:54;13.70;99.90
9762;DHT22;4920;49.594;11.022;2023-10-19T08:23:23;13.60;99.90
9762;DHT22;4920;49.594;11.022;2023-10-19T08:25:55;13.70;99.90
9762;DHT22;4920;49.594;11.022;2023-10-19T08:28:24;13.90;99.90
9762;DHT22;4920;49.594;11.022;2023-10-19T08:30:53;14.10;99.90
9762;DHT22;4920;49.594;11.022;2023-10-19T08:33:30;14.20;99.90
9762;DHT22;4920;49.594;11.022;2023-10-19T08:36:01;14.30;99.90
9762;DHT22;4920;49.594;11.022;2023-10-19T08:38:31;14.30;99.90
9762;DHT22;4920;49.594;11.022;2023-10-19T08:41:00;14.30;99.90
9762;DHT22;4920;49.594;11.022;2023-10-19T08:43:30;14.40;99.90
9762;DHT22;4920;49.594;11.022;2023-10-19T08:46:02;14.30;99.90
9762;DHT22;4920;49.594;11.022;2023-10-19T08:48:35;14.30;99.90
9762;DHT22;4920;49.594;11.022;2023-10-19T08:51:09;14.10;99.90
9762;DHT22;4920;49.594;11.022;2023-10-19T08:53:38;13.90;99.90
9762;DHT22;4920;49.594;11.022;2023-10-19T08:56:12;13.70;99.90
9762;DHT22;4920;49.594;11.022;2023-10-19T08:58:41;13.60;99.90
9762;DHT22;4920;49.594;11.022;2023-10-19T09:01:09;13.60;99.90
9762;DHT22;4920;49.594;11.022;2023-10-19T09:03:41;13.80;99.90
9762;DHT22;4920;49.594;11.022;2023-10-19T09:06:11;14.00;99.90
9762;DHT22;4920;49.594;11.022;2023-10-19T09:08:42;14.20;99.90
9762;DHT22;4920;49.594;11.022;2023-10-19T09:11:14;14.60;99.90
9762;DHT22;4920;49.594;11.022;2023-10-19T09:13:44;15.00;99.90
9762;DHT22;4920;49.594;11.022;2023-10-19T09:16:15;15.30;99.90
9762;DHT22;4920;49.594;11.022;2023-10-19T09:18:46;15.50;99.90
9762;DHT22;4920;49.594;11.022;2023-10-19T09:21:16;15.60;99.90
9762;DHT22;4920;49.594;11.022;2023-10-19T09:23:54;15.60;99.90
9762;DHT22;4920;49.594;11.022;2023-10-19T09:26:24;15.50;99.90
9762;DHT22;4920;49.594;11.022;2023-10-19T09:28:53;15.40;99.90
9762;DHT22;4920;49.594;11.022;2023-10-19T09:31:22;15.30;99.90
9762;DHT22;4920;49.594;11.022;2023-10-19T09:33:54;15.30;99.90
9762;DHT22;4920;49.594;11.022;2023-10-19T09:36:25;15.40;99.90
9762;DHT22;4920;49.594;11.022;2023-10-19T09:38:54;15.50;99.90
9762;DHT22;4920;49.594;11.022;2023-10-19T09:41:26;15.50;99.90
9762;DHT22;4920;49.594;11.022;2023-10-19T09:43:59;15.60;99.90
9762;DHT22;4920;49.594;11.022;2023-10-19T09:46:32;15.60;99.90
9762;DHT22;4920;49.594;11.022;2023-10-19T09:49:05;15.70;99.90
9762;DHT22;4920;49.594;11.022;2023-10-19T09:51:35;15.70;99.90
9762;DHT22;4920;49.594;11.022;2023-10-19T09:54:11;15.80;99.90
9762;DHT22;4920;49.594;11.022;2023-10-19T09:56:48;15.80;99.90
9762;DHT22;4920;49.594;11.022;2023-10-19T09:59:26;15.60;99.90
9762;DHT22;4920;49.594;11.022;2023-10-19T10:02:06;15.50;99.90
9762;DHT22;4920;49.594;11.022;2023-10-19T10:04:38;15.40;99.90
9762;DHT22;4920;49.594;11.022;2023-10-19T10:07:08;15.40;99.90
9762;DHT22;4920;49.594;11.022;2023-10-19T10:09:40;15.40;99.90
9762;DHT22;4920;49.594;11.022;2023-10-19T10:12:21;15.30;99.90
9762;DHT22;4920;49.594;11.022;2023-10-19T10:14:58;15.30;99.90
9762;DHT22;4920;49.594;11.022;2023-10-19T10:17:33;15.30;99.90
9762;DHT22;4920;49.594;11.022;2023-10-19T10:20:31;15.30;99.90
9762;DHT22;4920;49.594;11.022;2023-10-19T10:23:20;15.40;99.90
9762;DHT22;4920;49.594;11.022;2023-10-19T10:25:55;15.50;99.90
9762;DHT22;4920;49.594;11.022;2023-10-19T10:28:26;15.60;99.90
9762;DHT22;4920;49.594;11.022;2023-10-19T10:31:09;15.70;99.90
9762;DHT22;4920;49.594;11.022;2023-10-19T10:33:42;15.80;99.90
9762;DHT22;4920;49.594;11.022;2023-10-19T10:36:14;15.90;99.90
9762;DHT22;4920;49.594;11.022;2023-10-19T10:38:45;16.00;99.90
9762;DHT22;4920;49.594;11.022;2023-10-19T10:41:20;16.20;99.90
9762;DHT22;4920;49.594;11.022;2023-10-19T10:43:50;16.30;99.90
9762;DHT22;4920;49.594;11.022;2023-10-19T10:46:21;16.40;99.90
9762;DHT22;4920;49.594;11.022;2023-10-19T10:48:50;16.50;99.90
9762;DHT22;4920;49.594;11.022;2023-10-19T10:51:23;16.60;99.90
9762;DHT22;4920;49.594;11.022;2023-10-19T10:53:53;16.70;99.90
9762;DHT22;4920;49.594;11.022;2023-10-19T10:56:24;16.70;99.90
9762;DHT22;4920;49.594;11.022;2023-10-19T10:58:53;16.80;99.90
9762;DHT22;4920;49.594;11.022;2023-10-19T11:01:29;16.90;99.90
9762;DHT22;4920;49.594;11.022;2023-10-19T11:04:08;16.90;99.90
9762;DHT22;4920;49.594;11.022;2023-10-19T11:06:49;17.00;99.90
9762;DHT22;4920;49.594;11.022;2023-10-19T11:09:19;17.10;99.90
9762;DHT22;4920;49.594;11.022;2023-10-19T11:11:49;17.30;99.90
9762;DHT22;4920;49.594;11.022;2023-10-19T11:14:19;17.40;99.90
9762;DHT22;4920;49.594;11.022;2023-10-19T11:16:52;17.60;99.90
9762;DHT22;4920;49.594;11.022;2023-10-19T11:19:21;17.80;99.90
9762;DHT22;4920;49.594;11.022;2023-10-19T11:21:54;17.90;99.90
9762;DHT22;4920;49.594;11.022;2023-10-19T11:24:26;18.20;99.90
9762;DHT22;4920;49.594;11.022;2023-10-19T11:26:59;18.70;99.90
9762;DHT22;4920;49.594;11.022;2023-10-19T11:29:29;19.00;99.90
9762;DHT22;4920;49.594;11.022;2023-10-19T11:31:58;19.40;99.90
9762;DHT22;4920;49.594;11.022;2023-10-19T11:34:27;19.70;99.90
9762;DHT22;4920;49.594;11.022;2023-10-19T11:37:00;20.10;99.90
9762;DHT22;4920;49.594;11.022;2023-10-19T11:39:30;20.40;99.90
9762;DHT22;4920;49.594;11.022;2023-10-19T11:41:59;20.50;99.90
9762;DHT22;4920;49.594;11.022;2023-10-19T11:44:28;20.60;99.90
9762;DHT22;4920;49.594;11.022;2023-10-19T11:46:57;20.90;99.90
9762;DHT22;4920;49.594;11.022;2023-10-19T11:49:26;21.10;99.90
9762;DHT22;4920;49.594;11.022;2023-10-19T11:51:55;21.30;99.90
9762;DHT22;4920;49.594;11.022;2023-10-19T11:54:26;21.30;99.90
9762;DHT22;4920;49.594;11.022;2023-10-19T11:56:54;21.10;99.90
9762;DHT22;4920;49.594;11.022;2023-10-19T11:59:23;21.00;99.90
9762;DHT22;4920;49.594;11.022;2023-10-19T12:01:53;20.70;99.90
9762;DHT22;4920;49.594;11.022;2023-10-19T12:04:22;20.50;99.90
9762;DHT22;4920;49.594;11.022;2023-10-19T12:06:52;20.30;99.90
9762;DHT22;4920;49.594;11.022;2023-10-19T12:09:21;20.30;99.90
9762;DHT22;4920;49.594;11.022;2023-10-19T12:11:54;20.40;99.90
9762;DHT22;4920;49.594;11.022;2023-10-19T12:14:23;20.40;99.90
9762;DHT22;4920;49.594;11.022;2023-10-19T12:16:52;20.50;99.90
9762;DHT22;4920;49.594;11.022;2023-10-19T12:19:25;20.60;99.90
9762;DHT22;4920;49.594;11.022;2023-10-19T12:21:54;20.60;99.90
9762;DHT22;4920;49.594;11.022;2023-10-19T12:24:22;20.50;99.90
9762;DHT22;4920;49.594;11.022;2023-10-19T12:26:57;20.50;99.90
9762;DHT22;4920;49.594;11.022;2023-10-19T12:29:26;20.40;99.90
9762;DHT22;4920;49.594;11.022;2023-10-19T12:31:54;20.30;99.90
9762;DHT22;4920;49.594;11.022;2023-10-19T12:34:23;20.10;99.90
9762;DHT22;4920;49.594;11.022;2023-10-19T12:36:52;20.00;99.90
9762;DHT22;4920;49.594;11.022;2023-10-19T12:39:24;19.90;99.90
9762;DHT22;4920;49.594;11.022;2023-10-19T12:42:08;19.80;99.90
9762;DHT22;4920;49.594;11.022;2023-10-19T12:44:37;19.80;99.90
9762;DHT22;4920;49.594;11.022;2023-10-19T12:47:14;19.80;99.90
9762;DHT22;4920;49.594;11.022;2023-10-19T12:49:45;19.80;99.90
9762;DHT22;4920;49.594;11.022;2023-10-19T12:52:15;19.70;99.90
9762;DHT22;4920;49.594;11.022;2023-10-19T12:54:44;19.60;99.90
9762;DHT22;4920;49.594;11.022;2023-10-19T12:57:20;19.60;99.90
9762;DHT22;4920;49.594;11.022;2023-10-19T12:59:50;19.40;99.90
9762;DHT22;4920;49.594;11.022;2023-10-19T13:02:19;19.30;99.90
9762;DHT22;4920;49.594;11.022;2023-10-19T13:04:49;19.10;99.90
9762;DHT22;4920;49.594;11.022;2023-10-19T13:07:18;18.90;99.90
9762;DHT22;4920;49.594;11.022;2023-10-19T13:09:47;18.90;99.90
9762;DHT22;4920;49.594;11.022;2023-10-19T13:12:16;18.80;99.90
9762;DHT22;4920;49.594;11.022;2023-10-19T13:14:52;18.70;99.90
9762;DHT22;4920;49.594;11.022;2023-10-19T13:17:23;18.70;99.90
9762;DHT22;4920;49.594;11.022;2023-10-19T13:19:52;18.60;99.90
9762;DHT22;4920;49.594;11.022;2023-10-19T13:22:23;18.40;99.90
9762;DHT22;4920;49.594;11.022;2023-10-19T13:24:52;18.30;99.90
9762;DHT22;4920;49.594;11.022;2023-10-19T13:27:23;18.10;99.90
9762;DHT22;4920;49.594;11.022;2023-10-19T13:29:54;17.90;99.90
9762;DHT22;4920;49.594;11.022;2023-10-19T13:32:28;17.80;99.90
9762;DHT22;4920;49.594;11.022;2023-10-19T13:34:57;17.80;99.90
9762;DHT22;4920;49.594;11.022;2023-10-19T13:37:26;17.70;99.90
9762;DHT22;4920;49.594;11.022;2023-10-19T13:39:58;17.60;99.90
9762;DHT22;4920;49.594;11.022;2023-10-19T13:42:27;17.50;99.90
9762;DHT22;4920;49.594;11.022;2023-10-19T13:44:58;17.40;99.90
9762;DHT22;4920;49.594;11.022;2023-10-19T13:47:26;17.30;99.90
9762;DHT22;4920;49.594;11.022;2023-10-19T13:49:55;17.20;99.90
9762;DHT22;4920;49.594;11.022;2023-10-19T13:52:24;17.20;99.90
9762;DHT22;4920;49.594;11.022;2023-10-19T13:54:53;17.20;99.90
9762;DHT22;4920;49.594;11.022;2023-10-19T13:57:21;17.10;99.90
9762;DHT22;4920;49.594;11.022;2023-10-19T13:59:50;17.10;99.90
9762;DHT22;4920;49.594;11.022;2023-10-19T14:02:22;17.10;99.90
9762;DHT22;4920;49.594;11.022;2023-10-19T14:04:52;17.10;99.90
9762;DHT22;4920;49.594;11.022;2023-10-19T14:07:21;17.00;99.90
9762;DHT22;4920;49.594;11.022;2023-10-19T14:09:50;16.90;99.90
9762;DHT22;4920;49.594;11.022;2023-10-19T14:12:19;16.90;99.90
9762;DHT22;4920;49.594;11.022;2023-10-19T14:14:48;16.90;99.90
9762;DHT22;4920;49.594;11.022;2023-10-19T14:17:18;16.80;99.90
9762;DHT22;4920;49.594;11.022;2023-10-19T14:19:49;16.70;99.90
9762;DHT22;4920;49.594;11.022;2023-10-19T14:22:18;16.60;99.90
9762;DHT22;4920;49.594;11.022;2023-10-19T14:24:47;16.50;99.90
9762;DHT22;4920;49.594;11.022;2023-10-19T14:27:18;16.40;99.90
9762;DHT22;4920;49.594;11.022;2023-10-19T14:29:47;16.40;99.90
9762;DHT22;4920;49.594;11.022;2023-10-19T14:32:17;16.40;99.90
9762;DHT22;4920;49.594;11.022;2023-10-19T14:34:46;16.40;99.90
9762;DHT22;4920;49.594;11.022;2023-10-19T14:37:16;16.40;99.90
9762;DHT22;4920;49.594;11.022;2023-10-19T14:39:46;16.40;99.90
9762;DHT22;4920;49.594;11.022;2023-10-19T14:42:14;16.30;99.90
9762;DHT22;4920;49.594;11.022;2023-10-19T14:44:43;16.30;99.90
9762;DHT22;4920;49.594;11.022;2023-10-19T14:47:12;16.30;99.90
9762;DHT22;4920;49.594;11.022;2023-10-19T14:49:41;16.30;99.90
9762;DHT22;4920;49.594;11.022;2023-10-19T14:52:10;16.20;99.90
9762;DHT22;4920;49.594;11.022;2023-10-19T14:54:40;16.30;99.90
9762;DHT22;4920;49.594;11.022;2023-10-19T14:57:09;16.30;99.90
9762;DHT22;4920;49.594;11.022;2023-10-19T14:59:37;16.20;99.90
9762;DHT22;4920;49.594;11.022;2023-10-19T15:02:06;16.20;99.90
9762;DHT22;4920;49.594;11.022;2023-10-19T15:04:39;16.10;99.90
9762;DHT22;4920;49.594;11.022;2023-10-19T15:07:08;16.10;99.90
9762;DHT22;4920;49.594;11.022;2023-10-19T15:09:37;16.00;99.90
9762;DHT22;4920;49.594;11.022;2023-10-19T15:12:08;15.90;99.90
9762;DHT22;4920;49.594;11.022;2023-10-19T15:14:40;15.80;99.90
9762;DHT22;4920;49.594;11.022;2023-10-19T15:17:09;15.70;99.90
9762;DHT22;4920;49.594;11.022;2023-10-19T15:19:39;15.60;99.90
9762;DHT22;4920;49.594;11.022;2023-10-19T15:22:07;15.60;99.90
9762;DHT22;4920;49.594;11.022;2023-10-19T15:24:37;15.50;99.90
9762;DHT22;4920;49.594;11.022;2023-10-19T15:27:08;15.40;99.90
9762;DHT22;4920;49.594;11.022;2023-10-19T15:29:37;15.40;99.90
9762;DHT22;4920;49.594;11.022;2023-10-19T15:32:05;15.30;99.90
9762;DHT22;4920;49.594;11.022;2023-10-19T15:34:34;15.20;99.90
9762;DHT22;4920;49.594;11.022;2023-10-19T15:37:03;15.20;99.90
9762;DHT22;4920;49.594;11.022;2023-10-19T15:39:32;15.10;99.90
9762;DHT22;4920;49.594;11.022;2023-10-19T15:42:02;15.10;99.90
9762;DHT22;4920;49.594;11.022;2023-10-19T15:44:33;15.00;99.90
9762;DHT22;4920;49.594;11.022;2023-10-19T15:47:02;14.90;99.90
9762;DHT22;4920;49.594;11.022;2023-10-19T15:49:41;14.80;99.90
9762;DHT22;4920;49.594;11.022;2023-10-19T15:52:14;14.80;99.90
9762;DHT22;4920;49.594;11.022;2023-10-19T15:54:43;14.70;99.90
9762;DHT22;4920;49.594;11.022;2023-10-19T15:57:12;14.60;99.90
9762;DHT22;4920;49.594;11.022;2023-10-19T15:59:44;14.60;99.90
9762;DHT22;4920;49.594;11.022;2023-10-19T16:02:14;14.50;99.90
9762;DHT22;4920;49.594;11.022;2023-10-19T16:04:44;14.40;99.90
9762;DHT22;4920;49.594;11.022;2023-10-19T16:07:14;14.40;99.90
9762;DHT22;4920;49.594;11.022;2023-10-19T16:09:43;14.30;99.90
9762;DHT22;4920;49.594;11.022;2023-10-19T16:12:12;14.30;99.90
9762;DHT22;4920;49.594;11.022;2023-10-19T16:14:46;14.20;99.90
9762;DHT22;4920;49.594;11.022;2023-10-19T16:17:15;14.20;99.90